Argyle, Canada
Current Conditions -  °F | °C
As of 11:00 AM on Sunday 21 Dec 2014 (Local Time) from CYQI Reporting Station
Broken Clouds Broken Clouds  
Wind Chill: 26°   Ceiling: 3000
Heat Index: 34°   Visibility: 15mi
Dew Point: 28°   Wind: 10mph
Humidity: 81%   Direction: 110°ESE
Pressure: 30.34"   Gusts: NA
Location:  43.8°N, 65.85°W
Report Text: CYQI 211500Z 11009KT 15SM BKN030 01/M02 A3034 RMK SC7 SLP275
Loading
Personal Weather Stations






























Interactive Weather Map New forecast layout! Learn more

10-Day Weather Forecast

Advertisements
Track Severe Weather on mobile